Latest Weather Observations for Pound Creek

IDV60801

Issued at 7:31 am EDT Sunday 21 December 2014 (issued every 30 minutes, with the page automatically refreshed every 10 minutes)

About weather observations | Map of weather stations | Latest weather observations for VIC | Other Formats
Station Details ID: 085099 Name: POUND CREEK Lat: -38.63 Lon: 145.81 Height: 3.0 m
Data from the previous 72 hours. | See also: Recent months at Pound Creek
Date/Time
EDT
Temp
°C
App
Temp
°C
Dew
Point
Rel
Hum
%
Delta-T
°C
Wind Press
QNH
hPa
Press
MSL
hPa
Rain
since 9 am
mm
Dir
 
Spd
km/h
Gust
km/h
Spd
kts
Gust
kts
21/07:30am 13.5 13.4 13.2 98 0.2 E 6 7 3 4 1015.6 1015.6 0.0
21/07:00am 11.1 11.4 10.9 99 0.1 CALM 0 0 0 0 1016.0 1016.0 0.0
21/06:30am 8.1 7.6 7.7 97 0.2 CALM 0 2 0 1 1015.9 1015.9 0.0
21/06:00am 8.8 7.7 8.5 98 0.1 ENE 4 4 2 2 1015.5 1015.5 0.0
21/05:30am 8.4 7.9 8.0 97 0.2 CALM 0 4 0 2 1015.0 1015.0 0.0
21/05:00am 9.7 8.8 9.2 97 0.2 NE 4 6 2 3 1014.7 1014.7 0.0
21/04:30am 9.8 9.3 9.5 98 0.1 NE 2 6 1 3 1014.7 1014.7 0.0
21/04:00am 9.9 9.1 9.6 98 0.1 N 4 6 2 3 1014.8 1014.8 0.0
21/03:30am 10.5 9.8 10.0 97 0.3 NNE 4 7 2 4 1015.2 1015.2 0.0
21/03:00am 11.4 11.0 11.1 98 0.2 NNE 4 6 2 3 1015.6 1015.6 0.0
21/02:30am 10.7 9.7 10.2 97 0.3 NNE 6 9 3 5 1015.9 1015.9 0.0
21/02:00am 11.0 10.1 10.7 98 0.2 NNE 6 7 3 4 1016.1 1016.1 0.0
21/01:30am 10.3 9.5 9.8 97 0.3 N 4 6 2 3 1016.5 1016.5 0.0
21/01:00am 10.2 9.4 9.7 97 0.3 N 4 6 2 3 1017.0 1017.0 0.0
21/12:30am 10.0 9.9 9.4 96 0.3 CALM 0 0 0 0 1017.2 1017.2 0.0
21/12:00am 10.8 10.1 10.0 95 0.4 NNW 4 6 2 3 1017.6 1017.6 0.0
 
Date/Time
EDT
Temp
°C
App
Temp
°C
Dew
Point
Rel
Hum
%
Delta-T
°C
Wind Press
QNH
hPa
Press
MSL
hPa
Rain
since 9 am
mm
Dir
 
Spd
km/h
Gust
km/h
Spd
kts
Gust
kts
20/11:30pm 11.3 10.2 10.5 95 0.4 N 7 7 4 4 1017.7 1017.7 0.0
20/11:00pm 11.1 10.4 10.2 94 0.5 N 4 7 2 4 1017.7 1017.7 0.0
20/10:30pm 12.2 11.8 11.1 93 0.6 N 4 4 2 2 1017.8 1017.8 0.0
20/10:00pm 13.2 13.0 11.9 92 0.7 N 4 6 2 3 1017.9 1017.9 0.0
20/09:30pm 13.6 14.2 11.8 89 1.0 CALM 0 2 0 1 1017.8 1017.8 0.0
20/09:00pm 14.5 14.4 12.2 86 1.2 W 4 4 2 2 1017.7 1017.7 0.0
20/08:30pm 15.3 14.7 12.2 82 1.7 SW 7 9 4 5 1017.7 1017.7 0.0
20/08:00pm 16.6 15.7 12.6 77 2.2 SW 9 13 5 7 1017.6 1017.6 0.0
20/07:30pm 17.2 15.9 12.5 74 2.6 SW 11 15 6 8 1017.3 1017.3 0.0
20/07:00pm 17.5 16.2 12.4 72 2.8 SW 11 17 6 9 1017.2 1017.2 0.0
20/06:30pm 18.1 16.1 12.8 71 3.0 SW 15 20 8 11 1017.1 1017.1 0.0
20/06:00pm 18.3 16.3 12.7 70 3.1 SW 15 20 8 11 1017.0 1017.0 0.0
20/05:30pm 18.5 16.1 12.7 69 3.2 SW 17 20 9 11 1017.1 1017.1 0.0
20/05:00pm 18.8 16.5 13.0 69 3.3 SW 17 22 9 12 1017.2 1017.2 0.0
20/04:30pm 18.9 15.6 12.9 68 3.4 SW 22 28 12 15 1017.5 1017.5 0.0
20/04:00pm 18.1 14.7 12.5 70 3.1 WSW 22 32 12 17 1017.8 1017.8 0.0
20/03:30pm 18.7 14.8 12.0 65 3.7 WSW 24 33 13 18 1018.0 1018.0 0.0
20/03:00pm 18.7 15.3 12.5 67 3.5 WSW 22 30 12 16 1018.3 1018.3 0.0
20/02:30pm 19.1 14.9 12.4 65 3.7 SW 26 33 14 18 1018.4 1018.4 0.0
20/02:00pm 18.6 14.6 11.9 65 3.7 WSW 24 32 13 17 1018.4 1018.4 0.0
20/01:30pm 18.8 14.6 12.5 67 3.5 WSW 26 33 14 18 1018.4 1018.4 0.0
20/01:00pm 19.2 15.4 11.3 60 4.3 SW 22 30 12 16 1018.5 1018.5 0.0
20/12:30pm 19.7 15.3 11.7 60 4.4 WSW 26 33 14 18 1018.5 1018.5 0.0
20/12:00pm 18.5 14.4 11.3 63 3.9 WSW 24 32 13 17 1018.5 1018.5 0.0
20/11:30am 18.6 15.3 10.9 61 4.2 W 19 30 10 16 1018.7 1018.7 0.0
20/11:00am 18.1 15.3 11.4 65 3.6 W 17 24 9 13 1018.6 1018.6 0.0
20/10:30am 17.5 14.6 11.1 66 3.5 W 17 26 9 14 1018.7 1018.7 0.0
20/10:00am 17.1 14.0 11.6 70 3.0 WNW 19 24 10 13 1018.5 1018.5 0.0
20/09:30am 16.7 15.2 12.0 74 2.6 WNW 11 19 6 10 1018.5 1018.5 0.0
20/09:00am 15.7 14.7 12.3 80 1.9 NW 9 15 5 8 1018.5 1018.5 0.0
20/08:30am 15.0 13.9 12.1 83 1.6 NW 9 17 5 9 1018.2 1018.2 0.0
20/08:00am 13.5 12.3 11.7 89 1.0 NNW 9 13 5 7 1018.0 1018.0 0.0
20/07:30am 12.9 11.6 11.1 89 0.9 NNW 9 15 5 8 1017.9 1017.9 0.0
20/07:00am 11.8 10.6 10.2 90 0.8 NNW 7 11 4 6 1017.8 1017.8 0.0
20/06:30am 11.1 9.7 9.7 91 0.7 NNW 7 11 4 6 1017.4 1017.4 0.0
20/06:00am 10.2 8.3 9.0 92 0.6 N 9 11 5 6 1017.3 1017.3 0.0
20/05:30am 9.5 7.0 8.3 92 0.6 N 11 13 6 7 1017.3 1017.3 0.0
20/05:00am 9.4 7.2 8.0 91 0.7 N 9 13 5 7 1017.2 1017.2 0.0
20/04:30am 9.5 7.4 8.1 91 0.7 N 9 13 5 7 1017.2 1017.2 0.0
20/04:00am 9.5 7.3 7.8 89 0.8 N 9 11 5 6 1017.2 1017.2 0.0
20/03:30am 10.0 7.9 8.3 89 0.8 N 9 13 5 7 1017.3 1017.3 0.0
20/03:00am 10.1 8.0 8.2 88 0.9 NNW 9 13 5 7 1017.5 1017.5 0.0
20/02:30am 10.4 8.4 8.5 88 0.9 NNW 9 11 5 6 1017.7 1017.7 0.0
20/02:00am 10.3 8.2 8.2 87 1.0 NNW 9 11 5 6 1017.8 1017.8 0.0
20/01:30am 10.5 8.4 8.4 87 1.0 NNW 9 13 5 7 1018.1 1018.1 0.0
20/01:00am 10.4 8.3 8.2 86 1.1 NNW 9 11 5 6 1018.3 1018.3 0.0
20/12:30am 11.9 10.3 8.7 81 1.6 WNW 7 11 4 6 1018.6 1018.6 0.0
20/12:00am 12.2 10.8 9.4 83 1.4 WNW 7 13 4 7 1019.0 1019.0 0.0
 
Date/Time
EDT
Temp
°C
App
Temp
°C
Dew
Point
Rel
Hum
%
Delta-T
°C
Wind Press
QNH
hPa
Press
MSL
hPa
Rain
since 9 am
mm
Dir
 
Spd
km/h
Gust
km/h
Spd
kts
Gust
kts
19/11:30pm 11.5 10.4 8.5 82 1.5 NW 4 7 2 4 1019.3 1019.3 0.0
19/11:00pm 12.0 10.0 8.8 81 1.6 WNW 9 17 5 9 1019.3 1019.3 0.0
19/10:30pm 12.1 10.3 8.0 76 2.0 WNW 7 11 4 6 1019.4 1019.4 0.0
19/10:00pm 14.1 10.2 8.7 70 2.7 WSW 19 26 10 14 1019.4 1019.4 0.0
19/09:30pm 14.2 10.7 8.8 70 2.7 WSW 17 22 9 12 1019.4 1019.4 0.0
19/09:00pm 14.2 11.0 8.4 68 2.9 WSW 15 20 8 11 1019.2 1019.2 0.0
19/08:30pm 14.4 10.4 8.4 67 3.0 WSW 19 24 10 13 1019.2 1019.2 0.0
19/08:00pm 15.0 11.2 9.1 68 3.0 SW 19 26 10 14 1019.0 1019.0 0.0
19/07:30pm 15.6 11.9 9.3 66 3.2 SW 19 28 10 15 1018.8 1018.8 0.0
19/07:00pm 16.3 11.4 8.5 60 4.0 SW 24 32 13 17 1018.5 1018.5 0.0
19/06:30pm 16.3 12.3 9.0 62 3.8 WSW 20 30 11 16 1018.1 1018.1 0.0
19/06:00pm 17.0 12.6 8.9 59 4.2 WSW 22 32 12 17 1017.8 1017.8 0.0
19/05:30pm 16.5 11.6 8.5 59 4.1 WSW 24 35 13 19 1017.8 1017.8 0.0
19/05:00pm 17.5 13.0 8.6 56 4.6 WSW 22 33 12 18 1017.6 1017.6 0.0
19/04:30pm 17.6 13.0 9.5 59 4.2 WSW 24 35 13 19 1017.6 1017.6 0.0
19/04:00pm 18.1 13.7 10.5 61 4.1 WSW 24 35 13 19 1017.6 1017.6 0.0
19/03:30pm 17.2 13.3 9.4 60 4.1 SW 20 28 11 15 1017.5 1017.5 0.0
19/03:00pm 17.7 13.3 9.1 57 4.5 SW 22 32 12 17 1017.6 1017.6 0.0
19/02:30pm 17.6 13.3 7.9 53 4.9 WSW 20 32 11 17 1017.4 1017.4 0.0
19/02:00pm 17.8 13.6 9.9 60 4.2 WSW 22 30 12 16 1017.2 1017.2 0.0
19/01:30pm 17.6 13.7 10.7 64 3.7 SW 22 32 12 17 1017.3 1017.3 0.0
19/01:00pm 16.6 13.0 9.8 64 3.6 SW 19 28 10 15 1017.3 1017.3 0.0
19/12:30pm 16.9 13.5 10.7 67 3.3 SSW 19 26 10 14 1017.3 1017.3 0.0
19/12:00pm 18.1 14.1 10.5 61 4.1 SW 22 30 12 16 1017.1 1017.1 0.0
19/11:30am 17.2 13.0 9.6 61 4.0 SW 22 30 12 16 1016.9 1016.9 0.0
19/11:00am 16.0 11.9 8.7 62 3.7 SW 20 26 11 14 1016.6 1016.6 0.0
19/10:30am 17.1 13.0 10.2 64 3.7 SW 22 30 12 16 1016.5 1016.5 0.0
19/10:00am 16.5 12.2 9.2 62 3.8 SW 22 30 12 16 1016.2 1016.2 0.0
19/09:30am 16.3 12.5 9.9 66 3.4 SW 20 30 11 16 1016.0 1016.0 0.0
19/09:00am 15.6 12.2 10.4 71 2.7 SSW 19 28 10 15 1015.8 1015.8 5.0
19/08:30am 15.6 11.3 9.5 67 3.2 SW 22 30 12 16 1015.3 1015.3 5.0
19/08:00am 14.3 9.9 8.9 70 2.7 SW 22 32 12 17 1015.2 1015.2 5.0
19/07:30am 14.5 10.2 8.0 65 3.2 SW 20 30 11 16 1014.8 1014.8 5.0
19/07:00am 14.8 10.1 9.2 69 2.9 SW 24 32 13 17 1014.4 1014.4 5.0
19/06:30am 13.4 9.3 8.7 73 2.4 SW 20 28 11 15 1014.0 1014.0 5.0
19/06:00am 12.9 8.5 8.8 76 2.1 SW 22 35 12 19 1013.7 1013.7 5.0
19/05:30am 13.6 9.6 8.2 70 2.7 WSW 19 28 10 15 1013.4 1013.4 5.0
19/05:00am 13.2 9.2 8.1 71 2.5 SW 19 32 10 17 1013.1 1013.1 5.0
19/04:30am 13.4 9.3 8.5 72 2.4 SW 20 30 11 16 1012.7 1012.7 5.0
19/04:00am 13.7 9.7 9.0 73 2.4 WSW 20 32 11 17 1012.5 1012.5 5.0
19/03:30am 13.8 8.8 9.6 76 2.2 SW 26 35 14 19 1012.3 1012.3 5.0
19/03:00am 12.1 10.3 8.0 76 2.0 WNW 7 13 4 7 1012.2 1012.2 5.0
19/02:30am 13.8 9.1 7.8 67 3.0 WSW 22 30 12 16 1012.2 1012.2 5.0
19/02:00am 13.8 8.8 8.2 69 2.8 WSW 24 32 13 17 1012.2 1012.2 5.0
19/01:30am 13.9 9.6 9.5 75 2.3 WSW 22 32 12 17 1012.3 1012.3 5.0
19/01:00am 13.3 9.9 9.0 75 2.2 W 17 24 9 13 1012.2 1012.2 5.0
19/12:30am 13.6 10.2 9.3 75 2.2 WSW 17 28 9 15 1012.2 1012.2 5.0
19/12:00am 14.0 10.2 9.2 73 2.4 WSW 19 28 10 15 1012.2 1012.2 5.0
 
Date/Time
EDT
Temp
°C
App
Temp
°C
Dew
Point
Rel
Hum
%
Delta-T
°C
Wind Press
QNH
hPa
Press
MSL
hPa
Rain
since 9 am
mm
Dir
 
Spd
km/h
Gust
km/h
Spd
kts
Gust
kts
18/11:30pm 13.9 9.9 9.1 73 2.4 WSW 20 32 11 17 1012.1 1012.1 5.0
18/11:00pm 14.5 10.0 9.9 74 2.4 WSW 24 33 13 18 1011.9 1011.9 5.0
18/10:30pm 13.6 10.7 9.5 76 2.1 W 15 22 8 12 1011.7 1011.7 5.0
18/10:00pm 14.6 10.3 10.6 77 2.1 WSW 24 30 13 16 1011.5 1011.5 5.0
18/09:30pm 14.1 11.1 10.5 79 1.9 W 17 24 9 13 1011.1 1011.1 5.0
18/09:00pm 14.6 11.8 11.4 81 1.7 W 17 24 9 13 1010.7 1010.7 5.0
18/08:30pm 14.5 12.6 11.8 84 1.5 W 13 17 7 9 1010.3 1010.3 5.0
18/08:00pm 14.6 11.9 11.7 83 1.6 W 17 28 9 15 1010.1 1010.1 5.0
18/07:30pm 15.8 13.4 12.5 81 1.8 W 17 22 9 12 1009.7 1009.7 5.0
18/07:00pm 15.7 13.2 13.5 87 1.2 W 19 22 10 12 1009.3 1009.3 5.0
18/06:30pm 14.3 12.5 13.3 94 0.6 W 15 22 8 12 1008.9 1008.9 5.0
18/06:00pm 13.5 11.5 12.6 94 0.5 W 15 22 8 12 1008.6 1008.6 4.6
18/05:30pm 13.3 10.4 12.2 93 0.6 WNW 19 28 10 15 1008.5 1008.5 3.0
18/05:00pm 14.3 10.3 12.9 91 0.8 W 26 39 14 21 1008.0 1008.0 0.8
18/04:30pm 16.3 8.6 11.5 73 2.6 WSW 43 56 23 30 1007.0 1007.0 0.0
18/04:08pm 18.3 13.3 12.1 67 3.4 WSW 30 52 16 28 1006.3 1006.3 0.0
18/04:00pm 18.8 13.7 11.9 64 3.8 WSW 30 41 16 22 1006.3 1006.3 0.0
18/03:30pm 19.5 15.3 12.3 63 4.0 SW 26 41 14 22 1005.8 1005.8 0.0
18/03:00pm 18.5 13.9 11.1 62 4.0 WSW 26 35 14 19 1005.5 1005.5 0.0
18/02:30pm 20.3 16.4 12.0 59 4.6 SW 24 33 13 18 1005.4 1005.4 0.0
18/02:00pm 19.0 14.7 10.8 59 4.5 SW 24 33 13 18 1005.6 1005.6 0.0
18/01:30pm 18.4 13.9 10.0 58 4.5 WSW 24 35 13 19 1005.6 1005.6 0.0
18/01:00pm 19.2 13.6 10.2 56 4.8 W 30 46 16 25 1005.8 1005.8 0.0
18/12:30pm 19.1 12.1 8.4 50 5.5 W 35 48 19 26 1005.6 1005.6 0.0
18/12:00pm 20.3 14.2 11.8 58 4.7 WSW 35 48 19 26 1005.5 1005.5 0.0
18/11:30am 20.2 15.8 11.7 58 4.7 W 26 39 14 21 1005.0 1005.0 0.0
18/11:00am 21.2 17.2 10.4 50 5.9 WNW 22 39 12 21 1004.7 1004.7 0.0
18/10:30am 20.1 16.6 10.2 53 5.3 NW 19 30 10 16 1004.8 1004.8 0.0
18/10:00am 19.8 17.1 10.2 54 5.2 NW 15 24 8 13 1004.9 1004.9 0.0
18/09:30am 18.6 16.9 11.2 62 4.0 NW 11 19 6 10 1005.1 1005.1 0.0
18/09:00am 17.8 16.6 11.6 67 3.4 NW 9 17 5 9 1005.3 1005.3 0.0
18/08:30am 16.8 15.9 11.5 71 2.9 N 7 13 4 7 1005.1 1005.1 0.0
18/08:00am 15.1 13.5 11.5 79 1.9 NNE 11 15 6 8 1005.1 1005.1 0.0

Other Formats:

Comma delimited format used in spreadsheet applications
http://www.bom.gov.au/fwo/IDV60801/IDV60801.94886.axf

JavaScript Object Notation format (JSON) in row-major order
http://www.bom.gov.au/fwo/IDV60801/IDV60801.94886.json